Time;durP1;ratioP1;P1;durP2;ratioP2;P2;SDS_P1;SDS_P2;PMS_P1;PMS_P2;Temp;Humidity;BMP_temperature;BMP_pressure;BME280_temperature;BME280_humidity;BME280_pressure;Samples;Min_cycle;Max_cycle;Signal;HPM_P1;HPM_P2
2022/12/07 00:01:29;;;;;;;;;62.67;44.67;;;;;;;;5077210;28;61863;-80
2022/12/07 00:04:00;;;;;;;;;62.33;44.00;;;;;;;;5061967;28;62040;-80
2022/12/07 00:06:26;;;;;;;;;55.33;45.33;;;;;;;;5061614;28;62184;-80
2022/12/07 00:08:51;;;;;;;;;65.67;48.67;;;;;;;;5076283;28;63913;-80
2022/12/07 00:11:19;;;;;;;;;53.00;45.33;;;;;;;;5060825;28;62104;-79
2022/12/07 00:13:45;;;;;;;;;63.33;46.67;;;;;;;;5043697;28;62032;-81
2022/12/07 00:16:14;;;;;;;;;69.33;49.67;;;;;;;;5043508;28;61882;-80
2022/12/07 00:18:40;;;;;;;;;53.67;39.67;;;;;;;;5060588;28;61840;-79
2022/12/07 00:21:07;;;;;;;;;67.67;48.00;;;;;;;;5061539;28;61730;-80
2022/12/07 00:23:32;;;;;;;;;71.00;52.33;;;;;;;;5060960;28;61963;-80
2022/12/07 00:26:05;;;;;;;;;59.67;48.67;;;;;;;;5061875;28;61676;-80
2022/12/07 00:28:30;;;;;;;;;59.67;45.33;;;;;;;;5060631;28;62836;-81
2022/12/07 00:31:09;;;;;;;;;64.67;45.67;;;;;;;;5043317;28;61730;-81
2022/12/07 00:33:34;;;;;;;;;65.67;50.67;;;;;;;;5061439;28;61754;-80
2022/12/07 00:36:00;;;;;;;;;52.33;44.00;;;;;;;;5061452;28;61755;-80
2022/12/07 00:38:28;;;;;;;;;66.67;48.67;;;;;;;;5059609;28;63359;-80
2022/12/07 00:40:54;;;;;;;;;65.33;44.67;;;;;;;;5061289;28;61912;-79
2022/12/07 00:43:19;;;;;;;;;63.33;45.33;;;;;;;;5061277;28;61750;-80
2022/12/07 00:45:45;;;;;;;;;53.00;37.33;;;;;;;;5043175;28;61922;-80
2022/12/07 00:48:10;;;;;;;;;63.67;43.33;;;;;;;;5061829;28;62111;-81
2022/12/07 00:50:35;;;;;;;;;58.00;45.33;;;;;;;;5064342;28;61762;-79
2022/12/07 00:53:00;;;;;;;;;70.33;45.33;;;;;;;;5064176;28;61743;-80
2022/12/07 00:55:25;;;;;;;;;62.00;41.33;;;;;;;;5064953;28;61822;-80
2022/12/07 00:57:51;;;;;;;;;48.67;40.67;;;;;;;;5045341;28;64537;-80
2022/12/07 01:00:16;;;;;;;;;53.67;41.33;;;;;;;;5046287;28;61800;-80
2022/12/07 01:02:41;;;;;;;;;53.67;41.00;;;;;;;;5046275;28;61865;-80
2022/12/07 01:05:07;;;;;;;;;42.67;36.67;;;;;;;;5064706;28;61930;-79
2022/12/07 01:07:32;;;;;;;;;44.67;39.67;;;;;;;;5044885;28;63917;-79
2022/12/07 01:09:57;;;;;;;;;57.67;40.67;;;;;;;;5045879;28;61827;-80
2022/12/07 01:12:22;;;;;;;;;41.33;33.33;;;;;;;;5064201;28;61797;-80
2022/12/07 01:14:48;;;;;;;;;56.25;37.00;;;;;;;;5064319;28;62017;-80
2022/12/07 01:17:13;;;;;;;;;51.33;36.67;;;;;;;;5045379;28;65026;-80
2022/12/07 01:19:38;;;;;;;;;55.75;39.75;;;;;;;;5064082;28;62101;-80
2022/12/07 01:22:03;;;;;;;;;51.00;39.50;;;;;;;;5063770;28;61924;-80
2022/12/07 01:24:29;;;;;;;;;48.50;31.00;;;;;;;;5063837;28;62020;-81
2022/12/07 01:26:54;;;;;;;;;59.33;40.33;;;;;;;;5045188;28;64020;-80
2022/12/07 01:29:19;;;;;;;;;43.67;36.33;;;;;;;;5064168;28;61818;-80
2022/12/07 01:31:44;;;;;;;;;39.25;30.25;;;;;;;;5045592;28;61887;-80
2022/12/07 01:34:10;;;;;;;;;36.75;31.00;;;;;;;;5064202;28;62206;-81
2022/12/07 01:36:36;;;;;;;;;50.00;31.25;;;;;;;;5062703;28;61873;-81
2022/12/07 01:39:03;;;;;;;;;43.00;30.75;;;;;;;;5063281;28;61801;-80
2022/12/07 01:41:30;;;;;;;;;32.75;29.75;;;;;;;;5063932;28;62212;-80
2022/12/07 01:44:15;;;;;;;;;37.75;33.75;;;;;;;;5045481;28;62039;-81
2022/12/07 01:46:41;;;;;;;;;33.25;26.50;;;;;;;;5063121;28;62453;-79
2022/12/07 01:49:09;;;;;;;;;41.50;24.00;;;;;;;;5063165;28;61753;-79
2022/12/07 01:51:37;;;;;;;;;45.75;30.50;;;;;;;;5063658;28;62098;-80
2022/12/07 01:54:02;;;;;;;;;30.25;29.00;;;;;;;;5063440;28;61859;-80
2022/12/07 01:56:28;;;;;;;;;35.25;29.75;;;;;;;;5062925;28;61912;-80
2022/12/07 01:58:54;;;;;;;;;33.75;27.50;;;;;;;;5063188;28;61823;-80
2022/12/07 02:01:20;;;;;;;;;33.00;23.25;;;;;;;;5044889;28;61860;-81
2022/12/07 02:03:45;;;;;;;;;37.25;27.00;;;;;;;;5063736;28;62096;-80
2022/12/07 02:06:13;;;;;;;;;31.25;24.00;;;;;;;;5062536;28;61815;-81
2022/12/07 02:08:38;;;;;;;;;30.25;26.25;;;;;;;;5062943;28;61718;-80
2022/12/07 02:11:05;;;;;;;;;43.00;25.75;;;;;;;;5044918;28;62251;-79
2022/12/07 02:13:33;;;;;;;;;28.25;19.75;;;;;;;;5045403;28;61801;-80
2022/12/07 02:15:58;;;;;;;;;36.75;27.00;;;;;;;;5062438;28;61838;-80
2022/12/07 02:18:30;;;;;;;;;32.25;26.50;;;;;;;;5063142;28;61973;-80
2022/12/07 02:21:01;;;;;;;;;38.50;27.75;;;;;;;;5044835;28;62101;-80
2022/12/07 02:23:38;;;;;;;;;37.00;28.25;;;;;;;;5063062;28;62020;-80
2022/12/07 02:26:03;;;;;;;;;31.75;23.00;;;;;;;;5062462;28;61922;-81
2022/12/07 02:28:39;;;;;;;;;24.00;20.50;;;;;;;;5063210;28;61752;-80
2022/12/07 02:31:13;;;;;;;;;32.00;23.75;;;;;;;;5044863;28;62036;-80
2022/12/07 02:33:45;;;;;;;;;38.25;25.50;;;;;;;;5045200;28;61680;-80
2022/12/07 02:36:13;;;;;;;;;30.75;25.75;;;;;;;;5061877;28;61704;-80
2022/12/07 02:38:42;;;;;;;;;44.50;32.75;;;;;;;;5044327;28;62092;-81
2022/12/07 02:41:12;;;;;;;;;36.75;28.50;;;;;;;;5062810;28;61754;-80
2022/12/07 02:43:40;;;;;;;;;34.50;30.25;;;;;;;;5063353;28;61681;-81
2022/12/07 02:46:08;;;;;;;;;38.25;32.00;;;;;;;;5062087;28;62158;-80
2022/12/07 02:48:34;;;;;;;;;42.75;31.00;;;;;;;;5062388;28;62030;-79
2022/12/07 02:50:59;;;;;;;;;38.25;26.50;;;;;;;;5044902;28;61917;-80
2022/12/07 02:53:36;;;;;;;;;31.75;26.50;;;;;;;;5044264;28;62106;-80
2022/12/07 02:56:05;;;;;;;;;25.25;19.00;;;;;;;;5062119;28;62116;-80
2022/12/07 02:58:41;;;;;;;;;49.00;26.25;;;;;;;;5062573;28;61993;-80
2022/12/07 03:01:24;;;;;;;;;36.50;26.00;;;;;;;;5062519;28;61813;-81
2022/12/07 03:04:06;;;;;;;;;36.50;24.00;;;;;;;;5062675;28;61704;-80
2022/12/07 03:06:36;;;;;;;;;35.50;25.75;;;;;;;;5043479;28;65160;-80
2022/12/07 03:09:14;;;;;;;;;31.50;22.75;;;;;;;;5062363;28;61754;-80
2022/12/07 03:12:00;;;;;;;;;32.25;22.75;;;;;;;;5061465;28;61919;-81
2022/12/07 03:14:30;;;;;;;;;25.00;22.25;;;;;;;;5062635;28;61886;-80
2022/12/07 03:16:58;;;;;;;;;31.50;25.50;;;;;;;;5043452;28;63617;-80
2022/12/07 03:19:25;;;;;;;;;26.75;18.50;;;;;;;;5061741;28;62024;-80
2022/12/07 03:21:56;;;;;;;;;30.75;21.25;;;;;;;;5062406;28;61881;-80
2022/12/07 03:24:24;;;;;;;;;26.00;18.25;;;;;;;;5062258;28;62116;-80
2022/12/07 03:26:53;;;;;;;;;24.00;21.75;;;;;;;;5061621;28;61826;-80
2022/12/07 03:29:31;;;;;;;;;15.50;14.75;;;;;;;;5044019;28;61927;-80
2022/12/07 03:32:03;;;;;;;;;28.25;22.25;;;;;;;;5061749;28;61735;-79
2022/12/07 03:34:32;;;;;;;;;18.50;17.25;;;;;;;;5044050;28;61969;-80
2022/12/07 03:37:04;;;;;;;;;26.50;19.75;;;;;;;;5061229;28;61922;-80
2022/12/07 03:39:52;;;;;;;;;32.00;23.50;;;;;;;;5061652;28;62267;-81
2022/12/07 03:42:17;;;;;;;;;26.50;18.75;;;;;;;;5043442;28;62139;-80
2022/12/07 03:44:43;;;;;;;;;27.50;22.75;;;;;;;;5062299;28;62027;-80
2022/12/07 03:47:15;;;;;;;;;31.25;23.75;;;;;;;;5043210;28;65036;-80
2022/12/07 03:49:43;;;;;;;;;24.75;20.25;;;;;;;;5061702;28;61897;-81
2022/12/07 03:52:12;;;;;;;;;22.25;17.50;;;;;;;;5062063;28;61854;-80
2022/12/07 03:54:41;;;;;;;;;24.25;21.75;;;;;;;;5061499;28;61819;-80
2022/12/07 03:57:07;;;;;;;;;24.75;21.00;;;;;;;;5043145;28;63757;-80
2022/12/07 03:59:33;;;;;;;;;27.00;23.75;;;;;;;;5043515;28;61909;-79
2022/12/07 04:02:03;;;;;;;;;19.00;14.75;;;;;;;;5043621;28;62014;-80
2022/12/07 04:04:28;;;;;;;;;29.50;22.50;;;;;;;;5043639;28;61831;-80
2022/12/07 04:06:54;;;;;;;;;24.75;22.25;;;;;;;;5061037;28;61869;-80
2022/12/07 04:09:19;;;;;;;;;22.50;20.00;;;;;;;;5043473;28;62052;-80
2022/12/07 04:11:45;;;;;;;;;25.25;23.25;;;;;;;;5061372;28;61948;-80
2022/12/07 04:14:19;;;;;;;;;19.25;18.00;;;;;;;;5043780;28;62179;-80
2022/12/07 04:16:49;;;;;;;;;28.75;21.00;;;;;;;;5042317;28;63822;-81
2022/12/07 04:19:15;;;;;;;;;24.25;15.75;;;;;;;;5061460;28;61918;-80
2022/12/07 04:21:40;;;;;;;;;28.00;19.50;;;;;;;;5061623;28;61742;-80
2022/12/07 04:24:06;;;;;;;;;26.00;21.00;;;;;;;;5064183;28;61863;-80
2022/12/07 04:26:31;;;;;;;;;29.25;20.50;;;;;;;;5064491;28;62577;-81
2022/12/07 04:28:56;;;;;;;;;27.50;19.00;;;;;;;;5046661;28;61772;-80
2022/12/07 04:31:21;;;;;;;;;25.25;19.00;;;;;;;;5064661;28;61908;-81
2022/12/07 04:33:47;;;;;;;;;27.25;19.00;;;;;;;;5065122;28;61691;-81
2022/12/07 04:36:12;;;;;;;;;24.25;16.00;;;;;;;;5046304;28;65061;-80
2022/12/07 04:38:37;;;;;;;;;16.50;16.25;;;;;;;;5064336;28;62430;-80
2022/12/07 04:41:06;;;;;;;;;21.25;18.25;;;;;;;;5046693;28;62305;-80
2022/12/07 04:43:32;;;;;;;;;24.50;17.00;;;;;;;;5046767;28;61844;-80
2022/12/07 04:45:57;;;;;;;;;23.25;18.25;;;;;;;;5063846;28;62547;-81
2022/12/07 04:48:23;;;;;;;;;31.00;19.25;;;;;;;;5064106;28;62126;-80
2022/12/07 04:50:51;;;;;;;;;27.75;21.00;;;;;;;;5064776;28;61890;-80
2022/12/07 04:53:16;;;;;;;;;30.00;19.00;;;;;;;;5046262;28;61668;-80
2022/12/07 04:55:41;;;;;;;;;26.25;19.00;;;;;;;;5064125;28;61900;-80
2022/12/07 04:58:07;;;;;;;;;25.50;19.50;;;;;;;;5064351;28;62257;-80
2022/12/07 05:00:32;;;;;;;;;24.25;11.50;;;;;;;;5046414;28;61922;-81
2022/12/07 05:02:58;;;;;;;;;19.25;18.00;;;;;;;;5046598;28;61883;-80
2022/12/07 05:05:24;;;;;;;;;13.25;12.00;;;;;;;;5063897;28;61929;-80
2022/12/07 05:07:49;;;;;;;;;30.50;15.00;;;;;;;;5064020;28;61874;-79
2022/12/07 05:10:14;;;;;;;;;17.75;16.00;;;;;;;;5064257;28;62048;-80
2022/12/07 05:12:40;;;;;;;;;25.25;16.75;;;;;;;;5064345;28;61952;-80
2022/12/07 05:15:05;;;;;;;;;17.00;15.25;;;;;;;;5045329;28;64848;-80
2022/12/07 05:17:30;;;;;;;;;18.00;15.00;;;;;;;;5046106;28;61986;-80
2022/12/07 05:19:56;;;;;;;;;21.75;14.75;;;;;;;;5064168;28;61907;-81
2022/12/07 05:22:21;;;;;;;;;26.75;19.00;;;;;;;;5064591;28;62653;-80
2022/12/07 05:24:46;;;;;;;;;23.25;18.75;;;;;;;;5063210;28;61984;-80
2022/12/07 05:27:11;;;;;;;;;11.50;6.75;;;;;;;;5063677;28;62274;-80
2022/12/07 05:29:37;;;;;;;;;20.25;16.50;;;;;;;;5064125;28;61923;-80
2022/12/07 05:32:02;;;;;;;;;31.75;19.50;;;;;;;;5045978;28;62242;-80
2022/12/07 05:34:27;;;;;;;;;23.50;20.00;;;;;;;;5043904;28;63626;-81
2022/12/07 05:36:52;;;;;;;;;28.25;20.00;;;;;;;;5063839;28;61822;-80
2022/12/07 05:39:18;;;;;;;;;24.25;18.00;;;;;;;;5045372;28;62192;-80
2022/12/07 05:44:45;;;;;;;;;25.50;18.00;;;;;;;;5020214;28;63022;-80
2022/12/07 05:47:14;;;;;;;;;13.25;13.25;;;;;;;;5020848;28;62245;-80
2022/12/07 05:49:39;;;;;;;;;37.00;23.75;;;;;;;;5021305;28;62049;-80
2022/12/07 05:52:05;;;;;;;;;25.75;20.25;;;;;;;;5004683;28;62137;-80
2022/12/07 05:54:30;;;;;;;;;16.50;15.25;;;;;;;;5020272;28;62141;-80
2022/12/07 05:56:55;;;;;;;;;33.00;24.50;;;;;;;;5020679;28;61828;-79
2022/12/07 05:59:24;;;;;;;;;21.25;17.25;;;;;;;;5004406;28;62015;-80
2022/12/07 06:01:59;;;;;;;;;23.75;22.00;;;;;;;;5004238;28;61894;-80
2022/12/07 06:04:25;;;;;;;;;31.00;24.00;;;;;;;;5020186;28;63006;-79
2022/12/07 06:06:51;;;;;;;;;23.75;23.50;;;;;;;;5004330;28;62134;-79
2022/12/07 06:09:21;;;;;;;;;24.75;17.25;;;;;;;;5020552;28;61843;-80
2022/12/07 06:14:51;;;;;;;;;30.25;22.00;;;;;;;;5002037;28;62075;-77
2022/12/07 06:17:16;;;;;;;;;27.75;20.00;;;;;;;;5000651;28;61868;-77
2022/12/07 06:19:42;;;;;;;;;25.50;19.25;;;;;;;;4982678;28;61792;-79
2022/12/07 06:22:08;;;;;;;;;25.75;20.00;;;;;;;;4981089;28;61853;-79
2022/12/07 06:24:34;;;;;;;;;25.50;18.00;;;;;;;;4963874;28;64133;-79
2022/12/07 06:26:59;;;;;;;;;20.00;19.00;;;;;;;;4980877;28;61910;-78
2022/12/07 06:29:25;;;;;;;;;22.75;22.50;;;;;;;;4981150;28;61808;-79
2022/12/07 06:31:50;;;;;;;;;23.50;19.25;;;;;;;;4980406;28;62181;-81
2022/12/07 06:34:17;;;;;;;;;21.75;15.50;;;;;;;;4980357;28;63516;-78
2022/12/07 06:36:42;;;;;;;;;23.25;19.00;;;;;;;;4978913;28;62065;-78
2022/12/07 06:39:08;;;;;;;;;24.50;19.00;;;;;;;;4962914;28;61951;-77
2022/12/07 06:41:37;;;;;;;;;26.00;19.50;;;;;;;;4978126;28;61928;-78
2022/12/07 06:44:03;;;;;;;;;26.00;18.75;;;;;;;;4979365;28;62746;-78
2022/12/07 06:46:29;;;;;;;;;25.50;19.00;;;;;;;;5049452;28;62306;-77
2022/12/07 06:48:54;;;;;;;;;25.75;20.00;;;;;;;;5061788;28;62098;-78
2022/12/07 06:51:19;;;;;;;;;26.50;19.50;;;;;;;;5043463;28;61917;-78
2022/12/07 06:53:45;;;;;;;;;23.75;20.75;;;;;;;;5042115;28;65128;-78
2022/12/07 06:56:10;;;;;;;;;30.75;24.25;;;;;;;;5061097;28;62160;-78
2022/12/07 06:58:35;;;;;;;;;27.25;22.25;;;;;;;;5061021;28;61728;-77
2022/12/07 07:01:01;;;;;;;;;23.25;18.75;;;;;;;;5061782;28;61914;-77
2022/12/07 07:03:39;;;;;;;;;38.00;24.50;;;;;;;;5060857;28;62834;-77
2022/12/07 07:06:05;;;;;;;;;25.75;20.25;;;;;;;;5043243;28;62644;-77
2022/12/07 07:08:31;;;;;;;;;31.25;25.50;;;;;;;;5060902;28;61992;-77
2022/12/07 07:10:56;;;;;;;;;28.25;22.50;;;;;;;;5061792;28;62197;-78
2022/12/07 07:13:21;;;;;;;;;29.50;23.25;;;;;;;;5042821;28;64952;-77
2022/12/07 07:15:46;;;;;;;;;26.00;24.00;;;;;;;;5043429;28;62246;-77
2022/12/07 07:18:12;;;;;;;;;28.50;20.00;;;;;;;;5062047;28;61641;-77
2022/12/07 07:20:37;;;;;;;;;25.75;18.25;;;;;;;;5061854;28;61688;-77
2022/12/07 07:23:02;;;;;;;;;24.50;18.75;;;;;;;;5060621;28;62634;-77
2022/12/07 07:25:28;;;;;;;;;21.25;19.50;;;;;;;;5061379;28;61941;-77
2022/12/07 07:27:53;;;;;;;;;24.00;17.75;;;;;;;;5042820;28;61710;-79
2022/12/07 07:30:18;;;;;;;;;22.00;18.50;;;;;;;;5061960;28;61716;-77
2022/12/07 07:32:44;;;;;;;;;29.00;22.25;;;;;;;;5060705;28;61687;-79
2022/12/07 07:35:09;;;;;;;;;28.00;22.50;;;;;;;;5062109;28;62017;-77
2022/12/07 07:37:34;;;;;;;;;34.00;25.50;;;;;;;;5061330;28;61711;-77
2022/12/07 07:40:00;;;;;;;;;28.25;25.00;;;;;;;;5060897;28;62123;-77
2022/12/07 07:42:25;;;;;;;;;26.25;20.25;;;;;;;;5061103;28;62717;-77
2022/12/07 07:44:50;;;;;;;;;26.75;22.75;;;;;;;;5043722;28;61974;-79
2022/12/07 07:47:15;;;;;;;;;21.50;20.25;;;;;;;;5061922;28;61734;-79
2022/12/07 07:49:41;;;;;;;;;34.50;24.75;;;;;;;;5045595;28;61883;-79
2022/12/07 07:52:06;;;;;;;;;41.50;25.75;;;;;;;;5060161;28;61932;-80
2022/12/07 07:54:32;;;;;;;;;27.00;23.75;;;;;;;;5060713;28;61795;-78
2022/12/07 07:56:57;;;;;;;;;32.25;27.50;;;;;;;;5061085;28;62194;-78
2022/12/07 07:59:23;;;;;;;;;27.50;22.75;;;;;;;;5064768;28;61779;-78
2022/12/07 08:01:48;;;;;;;;;22.75;19.25;;;;;;;;5046410;28;64906;-78
2022/12/07 08:04:14;;;;;;;;;16.00;14.00;;;;;;;;5065231;28;61801;-78
2022/12/07 08:06:39;;;;;;;;;19.75;18.00;;;;;;;;5065117;28;62120;-78
2022/12/07 08:09:05;;;;;;;;;22.00;18.50;;;;;;;;5063858;28;62179;-78
2022/12/07 08:11:31;;;;;;;;;29.25;24.50;;;;;;;;5064019;28;61932;-77
2022/12/07 08:13:56;;;;;;;;;31.00;26.00;;;;;;;;5064664;28;61965;-78
2022/12/07 08:16:21;;;;;;;;;27.25;21.75;;;;;;;;5064844;28;62038;-79
2022/12/07 08:18:46;;;;;;;;;26.25;17.50;;;;;;;;5063372;28;62002;-78
2022/12/07 08:21:13;;;;;;;;;29.25;21.25;;;;;;;;5063604;28;62797;-78
2022/12/07 08:23:39;;;;;;;;;22.50;21.75;;;;;;;;5045707;28;61910;-77
2022/12/07 08:26:05;;;;;;;;;19.00;19.00;;;;;;;;5046489;28;61722;-78
2022/12/07 08:28:30;;;;;;;;;27.50;21.50;;;;;;;;5064364;28;61739;-78
2022/12/07 08:31:00;;;;;;;;;26.00;21.50;;;;;;;;5063981;28;61956;-78
2022/12/07 08:33:25;;;;;;;;;21.25;16.75;;;;;;;;5064829;28;61764;-78
2022/12/07 08:35:51;;;;;;;;;30.75;24.00;;;;;;;;5064580;28;61656;-81
2022/12/07 08:38:16;;;;;;;;;26.75;24.25;;;;;;;;5045444;28;62247;-82
2022/12/07 08:40:41;;;;;;;;;20.00;17.50;;;;;;;;5063695;28;62946;-82
2022/12/07 08:43:06;;;;;;;;;21.25;18.75;;;;;;;;5064407;28;61933;-82
2022/12/07 08:45:35;;;;;;;;;32.00;21.50;;;;;;;;5079955;28;61966;-82
2022/12/07 08:48:03;;;;;;;;;20.75;17.50;;;;;;;;5064437;28;61929;-82
2022/12/07 08:50:29;;;;;;;;;22.75;20.75;;;;;;;;5078824;28;63751;-82
2022/12/07 08:52:56;;;;;;;;;28.00;24.50;;;;;;;;5064089;28;61866;-82
2022/12/07 08:55:21;;;;;;;;;5.50;4.00;;;;;;;;5063949;28;62278;-82
2022/12/07 08:57:46;;;;;;;;;40.50;32.25;;;;;;;;5064150;28;61853;-82
2022/12/07 09:00:12;;;;;;;;;32.50;24.25;;;;;;;;5063593;28;61835;-82
2022/12/07 09:02:38;;;;;;;;;39.00;29.25;;;;;;;;5063577;28;61738;-82
2022/12/07 09:05:04;;;;;;;;;32.75;32.75;;;;;;;;5045920;28;61914;-81
2022/12/07 09:07:30;;;;;;;;;22.00;18.75;;;;;;;;5063704;28;61706;-82
2022/12/07 09:09:55;;;;;;;;;37.75;25.25;;;;;;;;5061854;28;62355;-82
2022/12/07 09:12:21;;;;;;;;;27.25;22.50;;;;;;;;5063576;28;62060;-82
2022/12/07 09:14:46;;;;;;;;;38.25;25.00;;;;;;;;5063259;28;62149;-78
2022/12/07 09:17:12;;;;;;;;;30.75;24.25;;;;;;;;5063510;28;61821;-79
2022/12/07 09:19:37;;;;;;;;;38.25;28.50;;;;;;;;5045073;28;63645;-77
2022/12/07 09:22:04;;;;;;;;;81.33;58.00;;;;;;;;5063513;28;61798;-78
2022/12/07 09:24:29;;;;;;;;;42.00;32.50;;;;;;;;5063285;28;61890;-78
2022/12/07 09:26:55;;;;;;;;;38.25;29.50;;;;;;;;5063730;28;62071;-78
2022/12/07 09:29:20;;;;;;;;;31.25;29.25;;;;;;;;5062781;28;62594;-78
2022/12/07 09:31:45;;;;;;;;;34.25;28.75;;;;;;;;5044418;28;61845;-78
2022/12/07 09:34:11;;;;;;;;;29.75;21.50;;;;;;;;5046114;28;61751;-78
2022/12/07 09:36:36;;;;;;;;;34.00;22.50;;;;;;;;5064093;28;61926;-78
2022/12/07 09:39:02;;;;;;;;;44.50;29.25;;;;;;;;5062421;28;62561;-78
2022/12/07 09:41:29;;;;;;;;;35.50;24.75;;;;;;;;5063455;28;61850;-78
2022/12/07 09:44:05;;;;;;;;;29.50;21.50;;;;;;;;5063413;28;62144;-78
2022/12/07 09:46:33;;;;;;;;;34.25;27.75;;;;;;;;5063897;28;61944;-78
2022/12/07 09:48:58;;;;;;;;;37.50;26.75;;;;;;;;5077551;28;63669;-77
2022/12/07 09:51:24;;;;;;;;;43.25;29.25;;;;;;;;5063665;28;61767;-78
2022/12/07 09:53:50;;;;;;;;;24.75;21.00;;;;;;;;5063020;28;61969;-78
2022/12/07 09:56:16;;;;;;;;;28.25;23.50;;;;;;;;5063046;28;61742;-82
2022/12/07 09:58:42;;;;;;;;;32.25;25.25;;;;;;;;5044361;28;64043;-78
2022/12/07 10:01:07;;;;;;;;;32.00;25.75;;;;;;;;5062797;28;61786;-78
2022/12/07 10:03:34;;;;;;;;;36.00;25.75;;;;;;;;5062133;28;61901;-77
2022/12/07 10:05:59;;;;;;;;;29.25;23.50;;;;;;;;5062634;28;62172;-78
2022/12/07 10:08:25;;;;;;;;;26.00;20.25;;;;;;;;5042838;28;64781;-78
2022/12/07 10:10:52;;;;;;;;;29.00;26.75;;;;;;;;5062931;28;61759;-78
2022/12/07 10:13:21;;;;;;;;;29.75;22.00;;;;;;;;5062884;28;61784;-78
2022/12/07 10:15:56;;;;;;;;;39.00;33.50;;;;;;;;5044594;28;62108;-78
2022/12/07 10:18:22;;;;;;;;;31.75;21.25;;;;;;;;5061936;28;61711;-78
2022/12/07 10:20:47;;;;;;;;;33.50;26.00;;;;;;;;5062138;28;61819;-78
2022/12/07 10:23:17;;;;;;;;;37.25;28.25;;;;;;;;5062113;28;61688;-78
2022/12/07 10:25:42;;;;;;;;;39.50;28.25;;;;;;;;5063258;28;61797;-78
2022/12/07 10:28:08;;;;;;;;;35.00;26.25;;;;;;;;5061702;28;61794;-78
2022/12/07 10:30:45;;;;;;;;;34.00;30.50;;;;;;;;5063016;28;61947;-78
2022/12/07 10:33:29;;;;;;;;;33.75;26.00;;;;;;;;5061919;28;61683;-78
2022/12/07 10:35:55;;;;;;;;;42.00;35.75;;;;;;;;5044673;28;61769;-78
2022/12/07 10:38:20;;;;;;;;;29.00;22.75;;;;;;;;5061849;28;62252;-78
2022/12/07 10:40:46;;;;;;;;;35.25;27.25;;;;;;;;5062583;28;61770;-78
2022/12/07 10:43:11;;;;;;;;;37.00;32.25;;;;;;;;5062615;28;61813;-77
2022/12/07 10:45:42;;;;;;;;;37.00;23.25;;;;;;;;5063049;28;61683;-77
2022/12/07 10:48:13;;;;;;;;;38.00;32.25;;;;;;;;5061213;28;61908;-78
2022/12/07 10:50:47;;;;;;;;;39.75;36.00;;;;;;;;5062256;28;61739;-78
2022/12/07 10:53:21;;;;;;;;;27.75;19.75;;;;;;;;5062231;28;61629;-78
2022/12/07 10:55:46;;;;;;;;;41.00;34.50;;;;;;;;5078314;28;61763;-78
2022/12/07 10:58:27;;;;;;;;;36.00;30.00;;;;;;;;5061603;28;62644;-77
2022/12/07 11:01:01;;;;;;;;;36.75;30.50;;;;;;;;5077791;28;61837;-78
2022/12/07 11:03:41;;;;;;;;;35.00;26.00;;;;;;;;5061631;28;61930;-78
2022/12/07 11:06:35;;;;;;;;;32.50;28.25;;;;;;;;5062312;28;61961;-78
2022/12/07 11:09:01;;;;;;;;;51.75;34.00;;;;;;;;5051971;28;62863;-77
2022/12/07 11:11:29;;;;;;;;;45.75;35.50;;;;;;;;5061786;28;61730;-78
2022/12/07 11:14:03;;;;;;;;;37.75;31.75;;;;;;;;5044043;28;61780;-79
2022/12/07 11:16:32;;;;;;;;;33.50;30.00;;;;;;;;5077057;28;61706;-80
2022/12/07 11:18:57;;;;;;;;;38.00;34.50;;;;;;;;5060764;28;62833;-80
2022/12/07 11:21:41;;;;;;;;;42.75;32.50;;;;;;;;5043096;28;61906;-77
2022/12/07 11:24:13;;;;;;;;;38.50;32.75;;;;;;;;5043484;28;61918;-77
2022/12/07 11:26:46;;;;;;;;;34.25;30.25;;;;;;;;5062021;28;61968;-77
2022/12/07 11:29:11;;;;;;;;;38.25;30.25;;;;;;;;5043193;28;63791;-77
2022/12/07 11:31:46;;;;;;;;;33.75;27.25;;;;;;;;5061052;28;61784;-76
2022/12/07 11:34:30;;;;;;;;;41.75;33.00;;;;;;;;5043315;28;61737;-77
2022/12/07 11:36:56;;;;;;;;;39.50;27.75;;;;;;;;5043600;28;61761;-76
2022/12/07 11:39:21;;;;;;;;;30.25;21.00;;;;;;;;5041510;28;63952;-77
2022/12/07 11:41:57;;;;;;;;;21.00;21.00;;;;;;;;5061243;28;61710;-77
2022/12/07 11:44:36;;;;;;;;;28.00;27.00;;;;;;;;5061994;28;62102;-77
2022/12/07 11:47:07;;;;;;;;;30.00;23.75;;;;;;;;5061313;28;61943;-76
2022/12/07 11:49:32;;;;;;;;;32.00;24.00;;;;;;;;5042366;28;63705;-76
2022/12/07 11:52:00;;;;;;;;;37.25;29.50;;;;;;;;5061582;28;61747;-77
2022/12/07 11:54:35;;;;;;;;;29.50;26.25;;;;;;;;5042816;28;61841;-77
2022/12/07 11:57:12;;;;;;;;;36.75;27.00;;;;;;;;5043541;28;61821;-77
2022/12/07 11:59:39;;;;;;;;;33.75;28.50;;;;;;;;5060736;28;61999;-78
2022/12/07 12:02:26;;;;;;;;;39.25;30.75;;;;;;;;5061556;28;61779;-78
2022/12/07 12:05:10;;;;;;;;;30.75;27.00;;;;;;;;5042802;28;61820;-79
2022/12/07 12:07:36;;;;;;;;;34.50;27.25;;;;;;;;5074596;28;62049;-79
2022/12/07 12:10:05;;;;;;;;;35.00;29.50;;;;;;;;5059997;28;62222;-78
2022/12/07 12:12:45;;;;;;;;;35.00;26.75;;;;;;;;5059627;28;61925;-77
2022/12/07 12:15:29;;;;;;;;;65.25;45.50;;;;;;;;5057644;28;61749;-77
2022/12/07 12:18:13;;;;;;;;;42.00;34.25;;;;;;;;5058329;28;61870;-77
2022/12/07 12:20:49;;;;;;;;;33.50;32.00;;;;;;;;5047747;28;64846;-78
2022/12/07 12:23:21;;;;;;;;;28.25;26.00;;;;;;;;5058269;28;61899;-78
2022/12/07 12:25:49;;;;;;;;;32.50;23.25;;;;;;;;5080368;27;61907;-80
2022/12/07 12:28:33;;;;;;;;;31.00;27.25;;;;;;;;5058988;28;61777;-80
2022/12/07 12:31:10;;;;;;;;;36.25;28.25;;;;;;;;5048583;28;64137;-80
2022/12/07 12:33:37;;;;;;;;;25.50;23.75;;;;;;;;5047484;28;62003;-79
2022/12/07 12:36:18;;;;;;;;;35.75;25.50;;;;;;;;5047759;28;61849;-79
2022/12/07 12:38:58;;;;;;;;;27.25;24.50;;;;;;;;5058105;28;62024;-80
2022/12/07 12:41:41;;;;;;;;;31.75;25.25;;;;;;;;5075144;28;61736;-79
2022/12/07 12:44:17;;;;;;;;;22.00;20.75;;;;;;;;5062068;28;61780;-79
2022/12/07 12:46:47;;;;;;;;;30.25;27.50;;;;;;;;5064710;28;61798;-79
2022/12/07 12:49:19;;;;;;;;;29.75;23.00;;;;;;;;5063412;28;61990;-80
2022/12/07 12:51:48;;;;;;;;;30.50;24.50;;;;;;;;5067522;28;61850;-79
2022/12/07 12:54:18;;;;;;;;;29.25;26.25;;;;;;;;5064291;28;61917;-80
2022/12/07 12:57:02;;;;;;;;;24.00;19.25;;;;;;;;5057897;28;62021;-79
2022/12/07 12:59:36;;;;;;;;;37.50;29.00;;;;;;;;5054710;28;61953;-79
2022/12/07 13:02:21;;;;;;;;;26.75;24.50;;;;;;;;5058738;28;62031;-79
2022/12/07 13:04:54;;;;;;;;;18.00;18.00;;;;;;;;5058502;28;61865;-79
2022/12/07 13:07:39;;;;;;;;;21.25;15.25;;;;;;;;5041719;28;62123;-83
2022/12/07 13:10:04;;;;;;;;;23.25;18.50;;;;;;;;5064241;28;62082;-79
2022/12/07 13:12:30;;;;;;;;;22.75;20.25;;;;;;;;5062926;28;62613;-77
2022/12/07 13:14:57;;;;;;;;;17.75;16.50;;;;;;;;5063474;28;62028;-79
2022/12/07 13:17:32;;;;;;;;;19.75;18.00;;;;;;;;5042050;28;62428;-79
2022/12/07 13:19:59;;;;;;;;;14.00;12.50;;;;;;;;5063499;28;61687;-78
2022/12/07 13:22:31;;;;;;;;;18.00;16.50;;;;;;;;5051421;28;65046;-83
2022/12/07 13:25:09;;;;;;;;;19.75;15.50;;;;;;;;5062422;28;62003;-83
2022/12/07 13:27:38;;;;;;;;;17.50;13.75;;;;;;;;5085626;27;61686;-83
2022/12/07 13:30:14;;;;;;;;;20.50;13.00;;;;;;;;5062440;28;61902;-79
2022/12/07 13:32:39;;;;;;;;;20.50;17.25;;;;;;;;5067606;28;62010;-79
2022/12/07 13:35:24;;;;;;;;;20.25;17.00;;;;;;;;5062354;28;61708;-78
2022/12/07 13:37:50;;;;;;;;;19.75;17.00;;;;;;;;5083642;27;62017;-78
2022/12/07 13:40:19;;;;;;;;;21.50;16.75;;;;;;;;5062932;28;61995;-79
2022/12/07 13:42:46;;;;;;;;;21.00;16.50;;;;;;;;5041567;28;64869;-78
2022/12/07 13:45:47;;;;;;;;;28.75;19.25;;;;;;;;5043314;28;61769;-79
2022/12/07 13:48:10;;;;;;;;;33.75;24.50;;;;;;;;5043316;28;62080;-79
2022/12/07 13:50:36;;;;;;;;;20.75;17.00;;;;;;;;5075930;28;62007;-79
2022/12/07 13:53:01;;;;;;;;;47.25;31.75;;;;;;;;5044864;28;63694;-79
2022/12/07 13:55:27;;;;;;;;;47.00;29.00;;;;;;;;5061917;28;62005;-78
2022/12/07 13:57:54;;;;;;;;;17.75;14.00;;;;;;;;5063082;28;61709;-79
2022/12/07 14:00:21;;;;;;;;;29.00;20.75;;;;;;;;5063361;28;61617;-78
2022/12/07 14:02:59;;;;;;;;;18.00;18.00;;;;;;;;5077792;28;63416;-79
2022/12/07 14:05:34;;;;;;;;;15.75;13.50;;;;;;;;5063662;28;62698;-79
2022/12/07 14:08:04;;;;;;;;;19.00;18.75;;;;;;;;5063175;28;62028;-79
2022/12/07 14:10:34;;;;;;;;;16.75;12.75;;;;;;;;5062545;28;62026;-79
2022/12/07 14:12:59;;;;;;;;;17.75;17.50;;;;;;;;5062205;28;63197;-79
2022/12/07 14:15:27;;;;;;;;;15.50;15.50;;;;;;;;5062498;28;61751;-79
2022/12/07 14:17:54;;;;;;;;;14.50;12.00;;;;;;;;5044552;28;62083;-79
2022/12/07 14:20:38;;;;;;;;;13.25;12.25;;;;;;;;5063010;28;61694;-79
2022/12/07 14:23:10;;;;;;;;;13.00;12.00;;;;;;;;5062555;28;61888;-78
2022/12/07 14:25:46;;;;;;;;;18.50;12.00;;;;;;;;5062187;28;61817;-78
2022/12/07 14:28:30;;;;;;;;;22.50;17.25;;;;;;;;5044997;28;62073;-78
2022/12/07 14:30:56;;;;;;;;;21.00;18.25;;;;;;;;5045470;28;61946;-79